This is the latest recevied weather packets stored in our database for station/object KB5SMY. If no packets are shown the sender has not sent any weather packets the latest 10 day(s).
| Time | Temp. | Humidity | Pressure | Rain* | Wind** | Luminosity | Snow |
|---|---|---|---|---|---|---|---|
| 1777832404 | 27.22° C | 34% | 1019.7 hPa | 0 mm | - | 1016 W/m² | - |
| 1777831804 | 26.67° C | 34% | 1019.8 hPa | 0 mm | - | 1016 W/m² | - |
| 1777826404 | 25.56° C | 44% | 1021.4 hPa | 0 mm | - | 893 W/m² | - |
| 1777825804 | 25° C | 43% | 1021.4 hPa | 0 mm | - | 870 W/m² | - |
| 1777822204 | 22.22° C | 50% | 1021.8 hPa | 0 mm | - | 712 W/m² | - |
| 1777821004 | 21.67° C | 54% | 1021.8 hPa | 0 mm | - | 564 W/m² | - |
| 1777815004 | 15° C | 76% | 1021.4 hPa | 0 mm | - | 297 W/m² | - |
| 1777814404 | 13.89° C | 82% | 1021.3 hPa | 0 mm | - | 255 W/m² | - |
| 1777813204 | 12.22° C | 89% | 1021.4 hPa | 0 mm | - | 151 W/m² | - |
| 1777812604 | 11.11° C | 90% | 1021.3 hPa | 0 mm | - | 125 W/m² | - |
| 1777809604 | 10° C | 87% | 1020.6 hPa | 0 mm | - | 12 W/m² | - |
| 1777807931 | 10.56° C | 86% | 1020.4 hPa | 0 mm | - | 0 W/m² | - |
| 1777800604 | 11.11° C | 85% | 1020.1 hPa | 0 mm | - | 0 W/m² | - |
| 1777799404 | 11.11° C | 84% | 1020.2 hPa | 0 mm | - | 0 W/m² | - |
| 1777798804 | 11.67° C | 84% | 1020.1 hPa | 0 mm | - | 0 W/m² | - |
| 1777798331 | 11.67° C | 83% | 1020 hPa | 0 mm | - | 0 W/m² | - |
| 1777797004 | 11.67° C | 83% | 1019.9 hPa | 0 mm | - | 0 W/m² | - |
| 1777793404 | 12.78° C | 79% | 1020.2 hPa | 0 mm | - | 0 W/m² | - |
| 1777784405 | 14.44° C | 72% | 1020.1 hPa | 0 mm | - | 0 W/m² | - |
| 1777777805 | 16.11° C | 65% | 1019.8 hPa | 0 mm | - | 0 W/m² | - |
| 1777777204 | 16.67° C | 65% | 1019.8 hPa | 0 mm | - | 0 W/m² | - |
| 1777772405 | 20.56° C | 50% | 1019.1 hPa | 0 mm | - | 0 W/m² | - |
| 1777771205 | 21.67° C | 43% | 1018.9 hPa | 0 mm | - | 0 W/m² | - |
| 1777770605 | 22.22° C | 42% | 1018.9 hPa | 0 mm | - | 7 W/m² | - |
| 1777768931 | 23.89° C | 37% | 1019 hPa | 0 mm | - | 25 W/m² | - |
* Rain latest hour (hover to see other rain measurements)
** Current wind speed in m/s (hover to see current wind gust speed)